Portada
METAR-TAF:

METAR-TAF

Aeropuertos :

Juigalpa, Nicaragua

latitud: 12-06N, longitud: 085-22W, altitud: 90 m

Observación

El informe se hizo hace 15 minutos, a las 21:00 UTC
Viento 4 kt del este
Temperatura 36°C
Humedad 45%
Presión 1011 hPa
Visibilidad 10 km o más
Nubes dispersas a una altura de 2000 ft

METAR: MNJU 202100Z 08004KT 9999 SCT020 36/22 Q1011

Hora: 15:15 (21:15 UTC)


TAF: falta

Observaciones y pronósticos meteorológicos de más de 4000 aeropuertos (mensajes METAR y TAF).

Los puntos amarillos y rojos representan las estaciones disponibles.

Ponga el ratón en el punto deseado para ver el nombre de la estación.

Haga clic para ver las observaciones y los pronósticos meteorológicos.

Para cambiar el mapa : haga clic en los botones verdes con una cruz de color negro para hacer un zoom, en el botón verde con un guión para alejar o en las flechas verdes para mapas adyacentes.


METAR-TAF: